Time;durP1;ratioP1;P1;durP2;ratioP2;P2;SDS_P1;SDS_P2;PMS_P1;PMS_P2;Temp;Humidity;BMP_temperature;BMP_pressure;BME280_temperature;BME280_humidity;BME280_pressure;Samples;Min_cycle;Max_cycle;Signal;HPM_P1;HPM_P2
2023/08/20 00:00:24;;;;;;;;;;;;;;;24.18;100.00;100014.75;108324;1251;72705;-65
2023/08/20 00:02:58;;;;;;;10.40;8.00;;;;;;;24.15;100.00;100011.50;108432;1254;70039;-66
2023/08/20 00:05:26;;;;;;;8.50;7.80;;;;;;;24.14;100.00;100014.23;108199;1254;72308;-65
2023/08/20 00:07:54;;;;;;;8.70;7.90;;;;;;;24.15;100.00;100016.91;108293;1253;61405;-66
2023/08/20 00:10:21;;;;;;;13.40;7.90;;;;;;;24.13;100.00;100012.96;108335;1254;59815;-65
2023/08/20 00:12:49;;;;;;;11.20;7.90;;;;;;;24.09;100.00;100008.23;108441;1252;73575;-65
2023/08/20 00:15:19;;;;;;;10.90;9.20;;;;;;;24.06;100.00;100007.63;108473;1252;69145;-65
2023/08/20 00:17:47;;;;;;;10.40;8.50;;;;;;;24.04;100.00;100009.64;108479;1252;71907;-66
2023/08/20 00:20:16;;;;;;;10.20;9.10;;;;;;;24.01;100.00;100007.04;108430;1252;60829;-66
2023/08/20 00:22:45;;;;;;;10.50;8.50;;;;;;;23.98;100.00;100006.21;108556;1251;59689;-66
2023/08/20 00:25:13;;;;;;;9.90;8.80;;;;;;;23.96;100.00;100007.55;108514;1253;74591;-66
2023/08/20 00:27:41;;;;;;;9.00;8.30;;;;;;;23.95;100.00;100009.65;108471;1253;68336;-65
2023/08/20 00:30:10;;;;;;;11.00;8.30;;;;;;;23.92;100.00;100009.33;108452;1253;72650;-65
2023/08/20 00:32:38;;;;;;;;;;;;;;;23.92;100.00;100006.98;108468;1253;60665;-65
2023/08/20 00:35:07;;;;;;;10.70;8.60;;;;;;;23.89;100.00;100010.86;108473;1252;60921;-65
2023/08/20 00:37:36;;;;;;;11.90;8.70;;;;;;;23.86;100.00;100010.65;108374;1251;73698;-65
2023/08/20 00:40:05;;;;;;;9.40;8.20;;;;;;;23.84;100.00;100009.73;108563;1251;69076;-65
2023/08/20 00:42:32;;;;;;;10.00;8.40;;;;;;;23.85;100.00;100010.70;108596;1251;73302;-64
2023/08/20 00:45:00;;;;;;;13.00;8.40;;;;;;;23.86;100.00;100008.20;108482;1253;61405;-66
2023/08/20 00:47:27;;;;;;;9.20;8.40;;;;;;;23.87;100.00;100004.92;108501;1253;58752;-64
2023/08/20 00:49:55;;;;;;;13.70;8.60;;;;;;;23.88;100.00;100006.82;108490;1253;74120;-65
2023/08/20 00:52:23;;;;;;;9.50;8.30;;;;;;;23.87;100.00;100003.04;108447;1253;68613;-65
2023/08/20 00:54:50;;;;;;;;;;;;;;;23.81;100.00;100007.88;108319;1253;72358;-65
2023/08/20 00:57:19;;;;;;;11.70;8.80;;;;;;;23.76;100.00;100005.39;108287;1253;62112;-65
2023/08/20 00:59:48;;;;;;;9.20;8.40;;;;;;;23.74;100.00;100004.85;108211;1252;60888;-65
2023/08/20 01:02:17;;;;;;;10.90;8.70;;;;;;;23.71;100.00;100001.58;108335;1253;73568;-65
2023/08/20 01:04:45;;;;;;;9.00;8.10;;;;;;;23.69;100.00;100001.04;108495;1253;69663;-65
2023/08/20 01:07:28;;;;;;;9.50;8.30;;;;;;;23.67;100.00;99998.39;108187;1252;72335;-65
2023/08/20 01:10:07;;;;;;;10.10;7.50;;;;;;;23.66;100.00;99998.47;107937;1257;61469;-65
2023/08/20 01:12:35;;;;;;;13.70;9.00;;;;;;;23.67;100.00;99994.94;108458;1253;59784;-65
2023/08/20 01:15:03;;;;;;;10.70;7.60;;;;;;;23.67;100.00;99994.42;108589;1251;74313;-65
2023/08/20 01:17:31;;;;;;;;;;;;;;;23.66;100.00;99991.77;108444;1252;69148;-65
2023/08/20 01:19:58;;;;;;;8.70;7.50;;;;;;;23.67;100.00;99990.98;108486;1252;72346;-64
2023/08/20 01:22:53;;;;;;;9.50;8.60;;;;;;;23.68;100.00;99993.45;108324;1253;61693;-65
2023/08/20 01:26:18;;;;;;;9.70;8.70;;;;;;;23.67;100.00;99991.35;108325;1253;60660;-65
2023/08/20 01:28:46;;;;;;;10.40;8.70;;;;;;;23.65;100.00;99995.85;107713;1259;74042;-65
2023/08/20 01:31:14;;;;;;;11.80;8.80;;;;;;;23.61;100.00;99996.41;107427;1259;68341;-65
2023/08/20 01:33:44;;;;;;;9.30;8.30;;;;;;;23.57;100.00;99994.98;107682;1256;72086;-66
2023/08/20 01:36:12;;;;;;;13.20;8.90;;;;;;;23.54;100.00;99991.14;107853;1253;349325;-66
2023/08/20 01:40:03;;;;;;;9.80;8.80;;;;;;;23.23;100.00;99992.98;101336;1294;601837;-65
2023/08/20 01:42:31;;;;;;;15.50;9.00;;;;;;;23.56;100.00;99991.48;103543;1276;61437;-65
2023/08/20 01:44:59;;;;;;;10.50;8.80;;;;;;;23.57;100.00;99992.30;105634;1267;60231;-66
2023/08/20 01:47:27;;;;;;;9.90;8.80;;;;;;;23.47;100.00;99990.02;103507;1266;71830;-66
2023/08/20 01:49:54;;;;;;;10.70;9.50;;;;;;;23.38;100.00;99987.21;103747;1282;69075;-64
2023/08/20 01:52:22;;;;;;;10.00;8.80;;;;;;;23.32;100.00;99989.15;103492;1266;72415;-64
2023/08/20 01:54:50;;;;;;;12.20;9.80;;;;;;;23.28;100.00;99992.02;103518;1264;254000;-65
2023/08/20 01:57:17;;;;;;;;;;;;;;;23.24;100.00;99991.88;103956;1262;59746;-65
2023/08/20 01:59:46;;;;;;;;;;;;;;;23.24;100.00;99990.84;106982;1262;72936;-65
2023/08/20 02:02:13;;;;;;;12.30;8.80;;;;;;;23.21;100.00;99990.18;104152;1264;69149;-65
2023/08/20 02:04:41;;;;;;;;;;;;;;;23.17;100.00;99989.83;103998;1285;72908;-63
2023/08/20 02:07:08;;;;;;;12.10;8.80;;;;;;;23.07;100.00;99991.98;104481;1257;61494;-60
2023/08/20 02:09:36;;;;;;;9.90;9.00;;;;;;;23.01;100.00;99996.80;104389;1258;59773;-62
2023/08/20 02:12:05;;;;;;;10.10;8.50;;;;;;;22.98;100.00;99994.52;104609;1253;72825;-63
2023/08/20 02:14:35;;;;;;;13.40;9.40;;;;;;;22.97;100.00;99994.46;104318;1273;69741;-62
2023/08/20 02:17:03;;;;;;;10.90;9.70;;;;;;;22.94;100.00;99992.93;104496;1251;72900;-63
2023/08/20 02:19:31;;;;;;;10.90;9.50;;;;;;;22.90;100.00;99992.53;104333;1257;62392;-62
2023/08/20 02:21:59;;;;;;;10.50;9.50;;;;;;;22.88;100.00;99995.41;104347;1256;59700;-62
2023/08/20 02:24:26;;;;;;;11.70;9.40;;;;;;;22.88;100.00;99994.55;104329;1274;71974;-62
2023/08/20 02:26:54;;;;;;;13.20;9.90;;;;;;;22.84;100.00;99992.35;104445;1256;70103;-62
2023/08/20 02:29:22;;;;;;;;;;;;;;;22.83;100.00;99997.70;104331;1255;72368;-62
2023/08/20 02:31:49;;;;;;;;;;;;;;;22.79;100.00;99998.38;104326;1256;61380;-62
2023/08/20 02:34:17;;;;;;;10.90;9.80;;;;;;;22.75;100.00;100000.39;104479;1250;60429;-62
2023/08/20 02:36:46;;;;;;;11.10;10.00;;;;;;;22.66;100.00;99998.96;104298;1274;73224;-61
2023/08/20 02:39:13;;;;;;;11.10;9.90;;;;;;;22.63;100.00;100001.20;104283;1274;69675;-61
2023/08/20 02:41:41;;;;;;;;;;;;;;;22.63;100.00;100001.17;104261;1273;72887;-61
2023/08/20 02:44:09;;;;;;;11.20;10.00;;;;;;;22.63;100.00;99997.83;104630;1253;62442;-62
2023/08/20 02:46:38;;;;;;;10.80;9.80;;;;;;;22.56;100.00;99997.54;104361;1257;59638;-62
2023/08/20 02:49:06;;;;;;;11.20;10.10;;;;;;;22.57;100.00;100000.68;104323;1253;72812;-62
2023/08/20 02:51:33;;;;;;;10.70;9.60;;;;;;;22.58;100.00;99998.67;104349;1269;69107;-62
2023/08/20 02:54:01;;;;;;;12.90;11.00;;;;;;;22.63;100.00;99998.16;104370;1269;72384;-62
2023/08/20 02:56:29;;;;;;;14.00;11.30;;;;;;;22.66;100.00;99997.02;105269;1256;61554;-63
2023/08/20 02:58:56;;;;;;;11.40;10.30;;;;;;;22.67;100.00;99997.84;108202;1251;59940;-64
2023/08/20 03:01:27;;;;;;;;;;;;;;;22.70;100.00;99999.18;107313;1256;72791;-62
2023/08/20 03:03:55;;;;;;;10.20;9.30;;;;;;;22.66;100.00;100003.85;104458;1258;68206;-63
2023/08/20 03:06:23;;;;;;;10.70;9.70;;;;;;;22.63;100.00;100001.58;104466;1266;72877;-63
2023/08/20 03:08:50;;;;;;;10.00;9.00;;;;;;;22.62;100.00;99999.88;108396;1250;60880;-63
2023/08/20 03:11:18;;;;;;;11.80;10.60;;;;;;;22.63;100.00;99996.58;106459;1251;59744;-63
2023/08/20 03:13:46;;;;;;;10.80;9.90;;;;;;;22.67;100.00;99999.08;104304;1274;72905;-63
2023/08/20 03:16:13;;;;;;;;;;;;;;;22.67;100.00;99997.14;104364;1274;69228;-63
2023/08/20 03:18:41;;;;;;;11.20;10.00;;;;;;;22.68;100.00;100000.08;104283;1272;72526;-63
2023/08/20 03:21:09;;;;;;;;;;;;;;;22.68;100.00;99995.40;104333;1258;61847;-63
2023/08/20 03:23:36;;;;;;;;;;;;;;;22.67;100.00;99992.65;104338;1269;60451;-63
2023/08/20 03:26:04;;;;;;;;;;;;;;;22.64;100.00;99994.13;104322;1259;73729;-62
2023/08/20 03:28:32;;;;;;;;;;;;;;;22.64;100.00;99992.58;104324;1274;68607;-63
2023/08/20 03:31:01;;;;;;;;;;;;;;;22.65;100.00;99995.18;104569;1257;72635;-63
2023/08/20 03:33:30;;;;;;;;;;;;;;;22.67;100.00;99995.52;104325;1268;60278;-63
2023/08/20 03:35:57;;;;;;;;;;;;;;;22.69;100.00;99996.93;108450;1250;60261;-66
2023/08/20 03:38:27;;;;;;;;;;;;;;;22.75;100.00;99997.86;108210;1253;72825;-63
2023/08/20 03:40:55;;;;;;;;;;;;;;;22.81;100.00;99999.45;105099;1253;70003;-62
2023/08/20 03:43:22;;;;;;;;;;;;;;;22.87;100.00;99999.23;104552;1259;72232;-62
2023/08/20 03:45:51;;;;;;;;;;;;;;;22.93;100.00;100000.36;104694;1257;62487;-63
2023/08/20 03:48:19;;;;;;;;;;;;;;;22.96;100.00;100000.45;104385;1258;59622;-62
2023/08/20 03:50:47;;;;;;;;;;;;;;;23.02;100.00;100000.33;104358;1258;71860;-62
2023/08/20 03:53:15;;;;;;;;;;;;;;;23.09;100.00;99999.67;104366;1256;69610;-62
2023/08/20 03:55:52;;;;;;;;;;;;;;;23.11;100.00;99995.40;104447;1257;72530;-62
2023/08/20 03:58:20;;;;;;;;;;;;;;;23.14;100.00;99994.38;106599;1251;61427;-62
2023/08/20 04:00:47;;;;;;;;;;;;;;;23.17;100.00;99991.27;108021;1252;59457;-61
2023/08/20 04:03:19;;;;;;;;;;;;;;;23.23;100.00;99995.41;105401;1253;73286;-59
2023/08/20 04:05:47;;;;;;;;;;;;;;;23.28;100.00;99990.45;104390;1275;69160;-60
2023/08/20 04:08:14;;;;;;;;;;;;;;;23.34;100.00;99986.56;104334;1257;72953;-60
2023/08/20 04:10:45;;;;;;;;;;;;;;;23.41;100.00;99988.26;104540;1253;61739;-61
2023/08/20 04:13:13;;;;;;;;;;;;;;;23.45;100.00;99982.27;104792;1259;59824;-60
2023/08/20 04:15:41;;;;;;;;;;;;;;;23.53;100.00;99979.98;104321;1268;73290;-60
2023/08/20 04:18:09;;;;;;;;;;;;;;;23.60;100.00;99981.08;104443;1259;69996;-60
2023/08/20 04:20:39;;;;;;;;;;;;;;;23.67;100.00;99979.37;104431;1252;73477;-59
2023/08/20 04:23:09;;;;;;;;;;;;;;;23.72;100.00;99973.89;104432;1258;61403;-60
2023/08/20 04:25:36;;;;;;;;;;;;;;;23.80;100.00;99977.13;104338;1270;60624;-60
2023/08/20 04:28:04;;;;;;;;;;;;;;;23.89;100.00;99977.20;104290;1258;72885;-60
2023/08/20 04:30:32;;;;;;;;;;;;;;;23.96;100.00;99975.51;104461;1271;69831;-60
2023/08/20 04:32:59;;;;;;;;;;;;;;;24.03;100.00;99973.58;104287;1257;72312;-61
2023/08/20 04:35:27;;;;;;;;;;;;;;;24.10;100.00;99971.27;104202;1254;61506;-61
2023/08/20 04:37:55;;;;;;;;;;;;;;;24.15;100.00;99967.77;104320;1253;59747;-62
2023/08/20 04:40:23;;;;;;;;;;;;;;;24.22;100.00;99969.48;104514;1269;71856;-60
2023/08/20 04:42:51;;;;;;;;;;;;;;;24.30;100.00;99971.95;104297;1275;69209;-59
2023/08/20 04:45:19;;;;;;;;;;;;;;;24.38;100.00;99968.87;104283;1275;72551;-59
2023/08/20 04:47:47;;;;;;;;;;;;;;;24.46;100.00;99971.84;104285;1260;61839;-59
2023/08/20 04:50:16;;;;;;;;;;;;;;;24.52;100.00;99971.62;104396;1256;59790;-59
2023/08/20 04:52:48;;;;;;;;;;;;;;;24.59;100.00;99967.39;104258;1258;72894;-59
2023/08/20 04:55:15;;;;;;;;;;;;;;;24.67;100.00;99968.27;104324;1257;69612;-60
2023/08/20 04:57:43;;;;;;;;;;;;;;;24.75;100.00;99966.73;104285;1258;72175;-60
2023/08/20 05:00:11;;;;;;;;;;;;;;;24.84;100.00;99970.69;108225;1253;61464;-60
2023/08/20 05:02:56;;;;;;;;;;;;;;;24.94;100.00;99968.63;106757;1256;59838;-60
2023/08/20 05:05:24;;;;;;;;;;;;;;;25.04;100.00;99969.14;104369;1270;73659;-59
2023/08/20 05:07:52;;;;;;;;;;;;;;;25.14;100.00;99971.50;108276;1251;70027;-60
2023/08/20 05:10:20;;;;;;;;;;;;;;;25.24;100.00;99969.88;108459;1250;72337;-60
2023/08/20 05:12:47;;;;;;;;;;;;;;;25.36;100.00;99971.72;108448;1250;61375;-61
2023/08/20 05:15:15;;;;;;;;;;;;;;;25.49;100.00;99969.93;104720;1252;59834;-60
2023/08/20 05:17:43;;;;;;;;;;;;;;;25.60;100.00;99969.86;104316;1259;72756;-60
2023/08/20 05:20:11;;;;;;;;;;;;;;;25.69;100.00;99963.04;104360;1260;69129;-60
2023/08/20 05:22:39;;;;;;;;;;;;;;;25.77;100.00;99965.80;104296;1274;72363;-60
2023/08/20 05:25:09;;;;;;;;;;;;;;;25.84;100.00;99962.73;104384;1258;61668;-61
2023/08/20 05:27:37;;;;;;;;;;;;;;;25.94;100.00;99962.69;104301;1250;59672;-60
2023/08/20 05:30:05;;;;;;;;;;;;;;;26.02;100.00;99964.37;104515;1259;73311;-61
2023/08/20 05:32:33;;;;;;;;;;;;;;;26.12;100.00;99962.59;104398;1269;69481;-60
2023/08/20 05:35:01;;;;;;;;;;;;;;;26.25;100.00;99962.31;104293;1275;72363;-67
2023/08/20 05:37:29;;;;;;;;;;;;;;;26.33;100.00;99959.13;104470;1254;61413;-61
2023/08/20 05:39:57;;;;;;;;;;;;;;;26.44;100.00;99955.92;108101;1251;59468;-63
2023/08/20 05:42:25;;;;;;;;;;;;;;;26.57;100.00;99954.95;104430;1274;72795;-61
2023/08/20 05:44:58;;;;;;;;;;;;;;;26.68;100.00;99955.38;104412;1259;69430;-60
2023/08/20 05:47:27;;;;;;;;;;;;;;;26.79;100.00;99953.52;104544;1259;72926;-61
2023/08/20 05:49:54;;;;;;;;;;;;;;;26.89;100.00;99953.05;106074;1257;62427;-61
2023/08/20 05:52:22;;;;;;;;;;;;;;;26.98;100.00;99949.30;104541;1252;60483;-60
2023/08/20 05:54:49;;;;;;;;;;;;;;;27.08;100.00;99947.60;104287;1259;74472;-61
2023/08/20 05:57:17;;;;;;;;;;;;;;;27.17;100.00;99947.41;104333;1267;68861;-61
2023/08/20 05:59:45;;;;;;;;;;;;;;;27.27;100.00;99945.52;104491;1259;72715;-61
2023/08/20 06:02:16;;;;;;;;;;;;;;;27.37;100.00;99939.06;107958;1255;61429;-62
2023/08/20 06:04:44;;;;;;;;;;;;;;;27.47;100.00;99942.60;105836;1259;60433;-62
2023/08/20 06:07:11;;;;;;;;;;;;;;;27.56;100.00;99943.52;104447;1259;73999;-60
2023/08/20 06:09:39;;;;;;;;;;;;;;;27.65;100.00;99939.79;104400;1269;69100;-61
2023/08/20 06:12:07;;;;;;;;;;;;;;;27.76;100.00;99937.65;104800;1257;72419;-62
2023/08/20 06:14:34;;;;;;;;;;;;;;;27.84;100.00;99940.76;104347;1256;61530;-61
2023/08/20 06:17:02;;;;;;;;;;;;;;;27.93;100.00;99940.48;104337;1259;59865;-59
2023/08/20 06:19:30;;;;;;;;;;;;;;;28.08;100.00;99942.45;104610;1267;74056;-59
2023/08/20 06:21:58;;;;;;;;;;;;;;;28.20;100.00;99943.39;104291;1275;69665;-59
2023/08/20 06:24:25;;;;;;;;;;;;;;;28.30;100.00;99938.70;104286;1275;72449;-60
2023/08/20 06:26:53;;;;;;;;;;;;;;;28.40;100.00;99937.63;104388;1268;62402;-59
2023/08/20 06:29:21;;;;;;;;;;;;;;;28.48;100.00;99938.28;104286;1274;59955;-59
2023/08/20 06:31:50;;;;;;;;;;;;;;;28.56;100.00;99934.15;104338;1274;74050;-59
2023/08/20 06:34:18;;;;;;;;;;;;;;;28.65;100.00;99934.17;104305;1259;69348;-59
2023/08/20 06:36:45;;;;;;;;;;;;;;;28.72;100.00;99931.54;104296;1259;73337;-59
2023/08/20 06:39:14;;;;;;;;;;;;;;;28.80;100.00;99930.15;104792;1259;61771;-60
2023/08/20 06:41:42;;;;;;;;;;;;;;;28.89;100.00;99928.04;105118;1257;59995;-60
2023/08/20 06:44:18;;;;;;;;;;;;;;;28.99;100.00;99928.86;104325;1270;73595;-60
2023/08/20 06:46:46;;;;;;;;;;;;;;;29.05;100.00;99925.23;104551;1257;69860;-60
2023/08/20 06:49:13;;;;;;;;;;;;;;;29.10;100.00;99923.41;104714;1269;72518;-60
2023/08/20 06:51:41;;;;;;;;;;;;;;;29.19;100.00;99918.64;104422;1257;60729;-60
2023/08/20 06:54:09;;;;;;;;;;;;;;;29.34;100.00;99919.41;104398;1257;60452;-61
2023/08/20 06:56:37;;;;;;;;;;;;;;;29.40;100.00;99922.60;104352;1254;73775;-60
2023/08/20 06:59:04;;;;;;;;;;;;;;;29.48;100.00;99922.46;105780;1257;68767;-60
2023/08/20 07:01:32;;;;;;;;;;;;;;;29.56;100.00;99920.73;105254;1257;72393;-60
2023/08/20 07:03:59;;;;;;;;;;;;;;;29.66;100.00;99922.66;104283;1254;61785;-59
2023/08/20 07:06:30;;;;;;;;;;;;;;;29.75;100.00;99921.94;104385;1258;60461;-60
2023/08/20 07:08:58;;;;;;;;;;;;;;;29.81;100.00;99920.34;104886;1267;74366;-60
2023/08/20 07:11:25;;;;;;;;;;;;;;;29.87;100.00;99918.34;104266;1258;69734;-60
2023/08/20 07:13:53;;;;;;;;;;;;;;;29.94;100.00;99917.33;104462;1276;72421;-61
2023/08/20 07:16:23;;;;;;;;;;;;;;;30.01;100.00;99920.88;104308;1260;61892;-61
2023/08/20 07:18:51;;;;;;;;;;;;;;;30.05;100.00;99917.04;104320;1259;59861;-61
2023/08/20 07:21:18;;;;;;;;;;;;;;;30.14;100.00;99917.28;104308;1253;73693;-60
2023/08/20 07:23:46;;;;;;;;;;;;;;;30.19;100.00;99914.48;104614;1259;69766;-61
2023/08/20 07:26:13;;;;;;;;;;;;;;;30.33;100.00;99911.76;104283;1275;71371;-60
2023/08/20 07:28:56;;;;;;;;;;;;;;;30.43;100.00;99909.12;104491;1254;61387;-61
2023/08/20 07:31:24;;;;;;;;;;;;;;;30.52;100.00;99911.30;104324;1256;60556;-61
2023/08/20 07:33:52;;;;;;;;;;;;;;;30.60;99.96;99914.77;104514;1257;73683;-61
2023/08/20 07:36:23;;;;;;;;;;;;;;;30.68;100.00;99909.44;104250;1276;69142;-61
2023/08/20 07:38:51;;;;;;;;;;;;;;;30.72;99.31;99910.82;104292;1275;72532;-61
2023/08/20 07:41:22;;;;;;;;;;;;;;;30.77;99.28;99912.30;105457;1253;61867;-63
2023/08/20 07:43:49;;;;;;;;;;;;;;;30.92;100.00;99907.93;108350;1252;60468;-64
2023/08/20 07:46:17;;;;;;;;;;;;;;;31.05;99.61;99908.42;108418;1253;74101;-63
2023/08/20 07:48:45;;;;;;;;;;;;;;;31.13;98.34;99906.96;108389;1252;70208;-63
2023/08/20 07:51:12;;;;;;;;;;;;;;;31.23;98.05;99904.39;108306;1257;72483;-64
2023/08/20 07:53:40;;;;;;;;;;;;;;;31.32;94.94;99900.77;108236;1254;62092;-63
2023/08/20 07:56:08;;;;;;;;;;;;;;;31.41;88.76;99902.84;108351;1253;59450;-64
2023/08/20 07:58:36;;;;;;;;;;;;;;;31.53;88.59;99899.38;108589;1253;74056;-64
2023/08/20 08:01:03;;;;;;;;;;;;;;;31.64;87.79;99899.18;108387;1253;69411;-64
2023/08/20 08:03:31;;;;;;;;;;;;;;;31.74;87.12;99896.21;108388;1253;72378;-64
2023/08/20 08:05:59;;;;;;;;;;;;;;;31.80;89.44;99889.42;108405;1256;61460;-64
2023/08/20 08:08:26;;;;;;;;;;;;;;;31.90;88.27;99891.22;108392;1252;59634;-65
2023/08/20 08:10:54;;;;;;;;;;;;;;;32.01;88.30;99889.45;108295;1253;73661;-66
2023/08/20 08:13:22;;;;;;;;;;;;;;;32.04;80.29;99889.45;108324;1252;69102;-61
2023/08/20 08:15:49;;;;;;;;;;;;;;;32.10;78.92;99886.77;108390;1254;73385;-60
2023/08/20 08:18:18;;;;;;;;;;;;;;;32.19;77.38;99887.86;108382;1254;60840;-62
2023/08/20 08:20:45;;;;;;;;;;;;;;;32.29;74.48;99886.23;108448;1253;59474;-60
2023/08/20 08:23:13;;;;;;;;;;;;;;;32.37;69.79;99883.40;108416;1253;74642;-62
2023/08/20 08:25:41;;;;;;;;;;;;;;;32.40;68.96;99883.87;108445;1257;69420;-62
2023/08/20 08:28:08;;;;;;;;;;;;;;;32.40;67.46;99883.84;108409;1255;73330;-63
2023/08/20 08:30:36;;;;;;;;;;;;;;;32.38;68.76;99885.04;108430;1252;58972;-61
2023/08/20 08:33:04;;;;;;;;;;;;;;;32.33;65.24;99881.25;108419;1253;59554;-60
2023/08/20 08:35:31;;;;;;;;;;;;;;;32.36;64.32;99881.84;108431;1254;72880;-60
2023/08/20 08:37:59;;;;;;;;;;;;;;;32.35;64.38;99878.08;108541;1251;69668;-61
2023/08/20 08:40:27;;;;;;;;;;;;;;;32.35;64.30;99878.29;108561;1256;72488;-60
2023/08/20 08:42:55;;;;;;;;;;;;;;;32.33;66.38;99876.65;108532;1253;58778;-61
2023/08/20 08:45:23;;;;;;;;;;;;;;;32.30;62.80;99874.08;108550;1251;58624;-62
2023/08/20 08:47:50;;;;;;;;;;;;;;;32.28;66.94;99870.16;108481;1251;74491;-61
2023/08/20 08:50:18;;;;;;;;;;;;;;;32.28;68.26;99868.61;108253;1251;69329;-59
2023/08/20 08:52:45;;;;;;;;;;;;;;;32.27;70.89;99867.11;108516;1256;72475;-61
2023/08/20 08:55:13;;;;;;;;;;;;;;;32.24;67.35;99865.50;108449;1253;59779;-61
2023/08/20 08:57:40;;;;;;;;;;;;;;;32.26;66.24;99865.17;108512;1253;59802;-61
2023/08/20 09:00:08;;;;;;;;;;;;;;;32.34;64.12;99872.59;108598;1252;73713;-61
2023/08/20 09:02:36;;;;;;;;;;;;;;;32.47;65.78;99871.30;108259;1254;69591;-61
2023/08/20 09:05:05;;;;;;;;;;;;;;;32.59;63.17;99865.33;108332;1251;72846;-63
2023/08/20 09:07:32;;;;;;;;;;;;;;;32.72;63.13;99865.46;108378;1251;59912;-61
2023/08/20 09:10:01;;;;;;;;;;;;;;;32.85;63.13;99865.41;108400;1251;59580;-61
2023/08/20 09:12:29;;;;;;;;;;;;;;;32.98;62.86;99866.76;108247;1254;74450;-61
2023/08/20 09:15:00;;;;;;;;;;;;;;;33.04;63.73;99861.94;107995;1251;69149;-61
2023/08/20 09:17:28;;;;;;;;;;;;;;;33.01;63.04;99868.30;108426;1251;72911;-65
2023/08/20 09:19:58;;;;;;;;;;;;;;;32.94;61.11;99866.11;108457;1255;59855;-63
2023/08/20 09:22:26;;;;;;;;;;;;;;;32.90;63.97;99863.59;108475;1251;59799;-64
2023/08/20 09:24:54;;;;;;;;;;;;;;;32.90;60.47;99860.53;108419;1255;73665;-63
2023/08/20 09:27:24;;;;;;;;;;;;;;;32.95;57.07;99858.45;108535;1251;69521;-62
2023/08/20 09:29:55;;;;;;;;;;;;;;;33.05;55.37;99863.83;108509;1252;72364;-63
2023/08/20 09:32:26;;;;;;;;;;;;;;;33.19;54.47;99862.65;108420;1254;59807;-63
2023/08/20 09:34:54;;;;;;;;;;;;;;;33.36;55.15;99859.86;108513;1251;60063;-63
2023/08/20 09:37:22;;;;;;;;;;;;;;;33.47;50.99;99856.17;108417;1252;74289;-62
2023/08/20 09:39:50;;;;;;;;;;;;;;;33.61;51.33;99855.88;108433;1251;69155;-64
2023/08/20 09:42:17;;;;;;;;;;;;;;;33.72;50.58;99850.77;108589;1251;72353;-63
2023/08/20 09:44:45;;;;;;;;;;;;;;;33.69;48.23;99846.08;108389;1253;60759;-62
2023/08/20 09:47:16;;;;;;;;;;;;;;;33.58;48.48;99844.97;108464;1251;59431;-63
2023/08/20 09:49:44;;;;;;;;;;;;;;;33.49;46.72;99840.83;108338;1254;73661;-62
2023/08/20 09:52:16;;;;;;;;;;;;;;;33.44;46.91;99837.14;108475;1251;68997;-63
2023/08/20 09:54:46;;;;;;;;;;;;;;;33.43;45.71;99837.60;108343;1251;72450;-63
2023/08/20 09:57:23;;;;;;;;;;;;;;;33.47;46.29;99833.57;108340;1254;58757;-64
2023/08/20 09:59:51;;;;;;;;;;;;;;;33.60;47.48;99830.38;108233;1251;60505;-63
2023/08/20 10:02:18;;;;;;;;;;;;;;;33.71;47.16;99828.00;108257;1251;73649;-62
2023/08/20 10:04:46;;;;;;;;;;;;;;;33.75;46.37;99832.26;108553;1250;68212;-64
2023/08/20 10:07:13;;;;;;;;;;;;;;;33.82;47.21;99831.55;108336;1254;71538;-63
2023/08/20 10:09:41;;;;;;;;;;;;;;;33.88;46.75;99827.96;108406;1252;59080;-63
2023/08/20 10:12:12;;;;;;;;;;;;;;;33.96;46.45;99823.98;108192;1253;59552;-64
2023/08/20 10:14:40;;;;;;;;;;;;;;;34.01;46.24;99820.41;108512;1251;73564;-62
2023/08/20 10:17:08;;;;;;;;;;;;;;;34.08;46.61;99819.46;108539;1251;69134;-66
2023/08/20 10:19:38;;;;;;;;;;;;;;;34.18;47.09;99818.91;108453;1254;72675;-67
2023/08/20 10:22:06;;;;;;;;;;;;;;;34.28;45.28;99817.20;108442;1254;59801;-66
2023/08/20 10:25:02;;;;;;;;;;;;;;;34.28;43.42;99818.80;108423;1253;59446;-67
2023/08/20 10:27:31;;;;;;;;;;;;;;;34.26;42.18;99815.27;108383;1253;72775;-66
2023/08/20 10:29:59;;;;;;;;;;;;;;;34.31;42.38;99813.45;108446;1254;69601;-68
2023/08/20 10:32:48;;;;;;;;;;;;;;;34.40;42.16;99804.67;108443;1254;72182;-65
2023/08/20 10:35:16;;;;;;;;;;;;;;;34.53;43.59;99808.21;108357;1254;60738;-61
2023/08/20 10:38:04;;;;;;;;;;;;;;;34.58;42.15;99802.39;108216;1257;59476;-63
2023/08/20 10:40:50;;;;;;;;;;;;;;;34.63;41.41;99804.04;108405;1254;73719;-66
2023/08/20 10:43:36;;;;;;;;;;;;;;;34.59;40.05;99795.16;108475;1251;69155;-62
2023/08/20 10:46:04;;;;;;;;;;;;;;;34.65;41.25;99792.98;108463;1254;72472;-64
2023/08/20 10:48:36;;;;;;;;;;;;;;;34.74;42.02;99788.25;108451;1254;60139;-64
2023/08/20 10:51:29;;;;;;;;;;;;;;;34.80;42.11;99791.91;108516;1253;60576;-64
2023/08/20 10:54:00;;;;;;;;;;;;;;;34.79;41.78;99787.64;108436;1253;74592;-64
2023/08/20 10:56:37;;;;;;;;;;;;;;;34.80;42.90;99782.66;108467;1252;69402;-64
2023/08/20 10:59:05;;;;;;;;;;;;;;;34.84;41.67;99778.21;108610;1251;73437;-64
2023/08/20 11:01:35;;;;;;;;;;;;;;;34.95;41.00;99780.33;108231;1252;60164;-64
2023/08/20 11:04:06;;;;;;;;;;;;;;;35.01;39.22;99777.14;108228;1252;60463;-64
2023/08/20 11:06:33;;;;;;;;;;;;;;;35.10;40.23;99778.10;108292;1251;74484;-64
2023/08/20 11:09:03;;;;;;;;;;;;;;;35.19;39.91;99769.48;108273;1254;70453;-63
2023/08/20 11:11:31;;;;;;;;;;;;;;;35.26;38.37;99770.67;108331;1251;72454;-62
2023/08/20 11:14:07;;;;;;;;;;;;;;;35.33;39.10;99762.63;108358;1251;60182;-63
2023/08/20 11:16:34;;;;;;;;;;;;;;;35.33;38.78;99755.83;108270;1252;61029;-64
2023/08/20 11:19:05;;;;;;;;;;;;;;;35.35;38.79;99754.74;108389;1252;72877;-63
2023/08/20 11:21:33;;;;;;;;;;;;;;;35.41;38.37;99753.25;108471;1253;69126;-64
2023/08/20 11:24:03;;;;;;;;;;;;;;;35.51;38.03;99750.37;108163;1251;72969;-63
2023/08/20 11:26:31;;;;;;;;;;;;;;;35.62;37.88;99748.31;108431;1253;59808;-63
2023/08/20 11:28:58;;;;;;;;;;;;;;;35.73;37.94;99744.60;108416;1252;60437;-65
2023/08/20 11:31:26;;;;;;;;;;;;;;;35.85;36.79;99743.54;108384;1251;73683;-65
2023/08/20 11:33:54;;;;;;;;;;;;;;;35.92;38.05;99739.70;108294;1251;69472;-65
2023/08/20 11:36:21;;;;;;;;;;;;;;;35.89;36.29;99734.73;108238;1254;72525;-65
2023/08/20 11:38:55;;;;;;;;;;;;;;;35.90;36.58;99733.63;108403;1253;60782;-65
2023/08/20 11:41:23;;;;;;;;;;;;;;;35.98;37.62;99735.20;108446;1253;59881;-67
2023/08/20 11:43:51;;;;;;;;;;;;;;;36.06;37.25;99728.50;108402;1251;73687;-66
2023/08/20 11:46:22;;;;;;;;;;;;;;;36.09;36.85;99721.79;108501;1251;69766;-64
2023/08/20 11:49:03;;;;;;;;;;;;;;;36.08;36.85;99719.30;108303;1253;71538;-66
2023/08/20 11:51:50;;;;;;;;;;;;;;;36.09;36.56;99719.21;108426;1253;59265;-64
2023/08/20 11:54:17;;;;;;;;;;;;;;;36.11;36.61;99717.80;108343;1251;60001;-63
2023/08/20 11:56:46;;;;;;;;;;;;;;;36.12;36.94;99713.98;108354;1254;73612;-63
2023/08/20 11:59:14;;;;;;;;;;;;;;;36.05;37.55;99704.15;108382;1253;69827;-64
2023/08/20 12:01:41;;;;;;;;;;;;;;;36.09;37.12;99704.07;108555;1252;72561;-63
2023/08/20 12:04:10;;;;;;;;;;;;;;;36.04;36.01;99704.70;108388;1251;59046;-63
2023/08/20 12:06:37;;;;;;;;;;;;;;;36.03;37.20;99704.17;108508;1251;59649;-63
2023/08/20 12:09:21;;;;;;;;;;;;;;;35.99;37.52;99703.08;108624;1250;74113;-63
2023/08/20 12:11:55;;;;;;;;;;;;;;;35.99;37.28;99704.02;108508;1251;69199;-63
2023/08/20 12:14:23;;;;;;;;;;;;;;;36.08;37.87;99698.50;108489;1251;72472;-63
2023/08/20 12:16:51;;;;;;;;;;;;;;;36.19;37.88;99692.52;108534;1253;60781;-64
2023/08/20 12:19:18;;;;;;;;;;;;;;;36.23;37.66;99690.37;108534;1251;59738;-64
2023/08/20 12:21:46;;;;;;;;;;;;;;;36.27;37.95;99686.55;108414;1253;74550;-64